Time;durP1;ratioP1;P1;durP2;ratioP2;P2;SDS_P1;SDS_P2;PMS_P1;PMS_P2;Temp;Humidity;BMP_temperature;BMP_pressure;BME280_temperature;BME280_humidity;BME280_pressure;Samples;Min_cycle;Max_cycle;Signal;HPM_P1;HPM_P2
2021/08/31 14:35:17;;;;;;;4.65;4.28;;;;;;;21.48;54.78;101060.19;5088223;27;20870;-77
2021/08/31 14:37:43;;;;;;;5.17;4.80;;;;;;;21.30;54.84;101058.31;5085236;28;20419;-74
2021/08/31 14:40:10;;;;;;;4.80;4.43;;;;;;;21.16;56.19;101062.94;5075206;28;20402;-74
2021/08/31 14:42:37;;;;;;;4.90;4.38;;;;;;;21.09;56.13;101065.22;5071564;28;20436;-74
2021/08/31 14:45:03;;;;;;;4.88;4.57;;;;;;;21.02;56.90;101067.53;5072617;28;20773;-74
2021/08/31 14:47:28;;;;;;;4.70;4.38;;;;;;;20.93;56.00;101070.16;5073172;28;20404;-74
2021/08/31 14:49:53;;;;;;;4.50;4.10;;;;;;;20.91;57.32;101063.31;5075619;28;20407;-74
2021/08/31 14:52:19;;;;;;;7.75;4.07;;;;;;;20.92;56.74;101067.69;5073479;28;20537;-74
2021/08/31 14:54:44;;;;;;;4.53;4.23;;;;;;;20.98;56.90;101060.97;5076310;28;20421;-74
2021/08/31 14:57:09;;;;;;;5.27;4.60;;;;;;;21.03;56.56;101055.41;5075462;28;21211;-74
2021/08/31 14:59:34;;;;;;;5.50;4.80;;;;;;;21.09;56.93;101052.31;5088719;28;20723;-74
2021/08/31 15:02:00;;;;;;;5.20;4.73;;;;;;;21.15;56.19;101064.88;5075612;28;20413;-74
2021/08/31 15:04:25;;;;;;;5.30;4.80;;;;;;;21.17;56.55;101064.59;5087238;28;20489;-74
2021/08/31 15:06:51;;;;;;;8.63;7.37;;;;;;;21.11;56.19;101057.50;5099103;28;20450;-74
2021/08/31 15:09:16;;;;;;;14.67;10.10;;;;;;;21.10;57.62;101067.72;5087498;28;20452;-74
2021/08/31 15:11:41;;;;;;;9.80;6.90;;;;;;;21.17;56.60;101061.84;5068030;28;20741;-74
2021/08/31 15:14:08;;;;;;;9.40;6.87;;;;;;;21.23;57.09;101057.88;5068966;28;20896;-74
2021/08/31 15:16:34;;;;;;;13.63;9.77;;;;;;;21.30;56.59;101060.25;5107708;28;20852;-74
2021/08/31 15:19:01;;;;;;;8.83;7.50;;;;;;;21.35;55.66;101054.63;5094343;28;20452;-74
2021/08/31 15:21:27;;;;;;;8.33;5.77;;;;;;;21.37;56.36;101060.66;5086365;28;20395;-76
2021/08/31 15:23:54;;;;;;;6.33;5.53;;;;;;;21.32;56.67;101055.22;5088986;28;20433;-75
2021/08/31 15:26:20;;;;;;;8.07;5.53;;;;;;;21.29;57.67;101058.59;5099991;28;20394;-74
2021/08/31 15:28:46;;;;;;;6.37;5.20;;;;;;;21.28;57.58;101063.28;5088059;28;20384;-75
2021/08/31 15:31:12;;;;;;;6.68;5.13;;;;;;;21.23;57.66;101062.56;5077013;28;20807;-76
2021/08/31 15:33:37;;;;;;;29.37;13.70;;;;;;;21.17;58.86;101070.09;5087215;28;20409;-76
2021/08/31 15:36:03;;;;;;;8.43;5.37;;;;;;;21.09;57.71;101063.31;5087887;28;20422;-76
2021/08/31 15:38:29;;;;;;;5.80;5.30;;;;;;;20.98;58.01;101067.31;5086423;28;20383;-76
2021/08/31 15:40:54;;;;;;;9.93;4.88;;;;;;;20.90;57.88;101070.75;5088804;28;20445;-76
2021/08/31 15:43:19;;;;;;;11.87;5.30;;;;;;;20.85;58.39;101070.00;5094037;28;20402;-76
2021/08/31 15:45:45;;;;;;;5.18;4.68;;;;;;;20.78;56.86;101062.09;5071383;28;20416;-75
2021/08/31 15:48:10;;;;;;;5.17;4.70;;;;;;;20.75;56.34;101070.19;5054772;28;20940;-74
2021/08/31 15:50:35;;;;;;;5.27;4.73;;;;;;;20.74;56.13;101057.50;5076018;28;20393;-74
2021/08/31 15:53:01;;;;;;;6.03;4.67;;;;;;;20.65;56.68;101068.34;5073863;28;20442;-74
2021/08/31 15:55:26;;;;;;;6.03;5.43;;;;;;;20.56;58.36;101075.66;5077490;28;20874;-74
2021/08/31 15:57:51;;;;;;;5.53;4.43;;;;;;;20.51;57.68;101065.56;5081093;28;20393;-75
2021/08/31 16:00:17;;;;;;;4.82;4.40;;;;;;;20.52;57.79;101064.41;5066161;28;20414;-74
2021/08/31 16:02:42;;;;;;;5.33;4.83;;;;;;;20.55;58.64;101074.84;5073373;28;20400;-73
2021/08/31 16:05:08;;;;;;;5.73;5.13;;;;;;;20.52;57.92;101069.91;5059447;28;20405;-75
2021/08/31 16:07:33;;;;;;;24.88;6.05;;;;;;;20.48;59.14;101068.06;5073768;28;20930;-74
2021/08/31 16:09:58;;;;;;;5.57;4.93;;;;;;;20.41;57.90;101070.38;5088433;28;20394;-75
2021/08/31 16:12:24;;;;;;;4.80;4.40;;;;;;;20.34;57.59;101073.47;5094017;28;20494;-74
2021/08/31 16:14:49;;;;;;;4.80;4.40;;;;;;;20.29;58.67;101067.19;5086459;28;20411;-74
2021/08/31 16:17:14;;;;;;;5.00;4.50;;;;;;;20.28;59.99;101060.06;5073688;28;20376;-77
2021/08/31 16:19:40;;;;;;;5.30;4.80;;;;;;;20.24;59.90;101068.06;5062051;28;20837;-74
2021/08/31 16:22:05;;;;;;;4.87;4.50;;;;;;;20.19;59.59;101070.88;5065474;28;20421;-74
2021/08/31 16:24:30;;;;;;;5.40;4.90;;;;;;;20.13;59.81;101067.38;5075611;28;20494;-74
2021/08/31 16:26:56;;;;;;;5.27;4.87;;;;;;;20.10;60.44;101067.13;5073608;28;20400;-74
2021/08/31 16:29:21;;;;;;;5.73;4.80;;;;;;;20.10;59.70;101069.88;5091066;28;20402;-74
2021/08/31 16:31:46;;;;;;;6.47;5.78;;;;;;;20.13;62.17;101064.63;5063719;28;20884;-74
2021/08/31 16:34:12;;;;;;;7.13;5.57;;;;;;;20.12;60.42;101060.22;5061744;28;20423;-75
2021/08/31 16:36:41;;;;;;;6.30;5.50;;;;;;;20.13;60.83;101067.38;5051572;28;20409;-75
2021/08/31 16:39:07;;;;;;;7.25;5.80;;;;;;;20.12;61.77;101057.47;5063348;28;20502;-75
2021/08/31 16:41:32;;;;;;;6.30;5.80;;;;;;;20.08;60.74;101061.13;5056999;28;20607;-75
2021/08/31 16:43:57;;;;;;;6.87;6.27;;;;;;;20.06;61.63;101064.16;5065788;28;20415;-75
2021/08/31 16:46:23;;;;;;;5.93;5.43;;;;;;;20.04;62.09;101066.38;5062278;28;20480;-75
2021/08/31 16:48:48;;;;;;;5.63;5.13;;;;;;;20.02;61.70;101068.59;5066801;28;20401;-75
2021/08/31 16:51:14;;;;;;;7.53;5.87;;;;;;;20.05;61.20;101061.69;5066999;28;20411;-75
2021/08/31 16:53:40;;;;;;;8.13;5.45;;;;;;;20.08;62.31;101067.44;5071119;28;20415;-75
2021/08/31 16:56:05;;;;;;;6.55;6.05;;;;;;;20.09;61.14;101059.97;5059582;28;20408;-75
2021/08/31 16:58:31;;;;;;;8.03;5.37;;;;;;;20.04;60.72;101058.13;5059942;28;21054;-75
2021/08/31 17:00:58;;;;;;;6.45;5.85;;;;;;;19.99;62.29;101055.41;5065781;28;20789;-75
2021/08/31 17:03:24;;;;;;;5.97;5.47;;;;;;;19.95;62.67;101062.66;5061186;28;20418;-75
2021/08/31 17:05:50;;;;;;;6.72;6.03;;;;;;;19.91;63.84;101063.50;5064789;28;20400;-75
2021/08/31 17:08:15;;;;;;;7.63;6.00;;;;;;;19.85;63.53;101065.50;5065816;28;20414;-75
2021/08/31 17:10:42;;;;;;;6.57;5.97;;;;;;;19.82;64.20;101059.75;5061605;28;20395;-74
2021/08/31 17:13:07;;;;;;;6.85;5.60;;;;;;;19.72;63.52;101066.19;5064319;28;20392;-74
2021/08/31 17:15:32;;;;;;;6.37;5.80;;;;;;;19.68;64.77;101062.38;5063790;28;20434;-75
2021/08/31 17:18:01;;;;;;;6.40;5.60;;;;;;;19.61;65.77;101070.16;5048834;28;22663;-75
2021/08/31 17:20:27;;;;;;;6.80;6.15;;;;;;;19.55;67.81;101074.06;5051303;28;20948;-75
2021/08/31 17:22:52;;;;;;;7.63;6.93;;;;;;;19.48;67.26;101068.91;5050187;28;20409;-74
2021/08/31 17:25:17;;;;;;;6.20;5.70;;;;;;;19.45;65.09;101074.97;5044585;28;20755;-74
2021/08/31 17:27:42;;;;;;;6.50;5.80;;;;;;;19.43;66.69;101079.13;5044438;28;20454;-74
2021/08/31 17:30:09;;;;;;;6.75;6.13;;;;;;;19.37;69.04;101072.81;5044401;28;20417;-76
2021/08/31 17:32:35;;;;;;;7.55;6.20;;;;;;;19.30;67.65;101069.56;5041032;28;20420;-74
2021/08/31 17:35:00;;;;;;;6.88;5.85;;;;;;;19.27;69.11;101070.13;5035628;28;20439;-75
2021/08/31 17:37:26;;;;;;;7.03;6.43;;;;;;;19.20;71.44;101069.66;5036153;28;20450;-74
2021/08/31 17:39:51;;;;;;;7.72;5.43;;;;;;;19.13;68.38;101069.97;5036133;28;20433;-75
2021/08/31 17:42:17;;;;;;;7.83;6.20;;;;;;;19.10;69.21;101070.56;5033813;28;20456;-74
2021/08/31 17:44:43;;;;;;;6.40;5.63;;;;;;;19.06;70.90;101075.00;5037295;28;20411;-75
2021/08/31 17:47:08;;;;;;;6.77;6.00;;;;;;;19.05;70.55;101070.59;5039794;28;20413;-75
2021/08/31 17:49:33;;;;;;;6.03;5.53;;;;;;;19.01;69.99;101077.75;5033034;28;20420;-74
2021/08/31 17:52:02;;;;;;;7.30;6.67;;;;;;;18.97;71.71;101078.63;5035851;28;20412;-74
2021/08/31 17:54:28;;;;;;;6.22;5.63;;;;;;;18.90;70.50;101080.88;5035367;28;20829;-74
2021/08/31 17:56:54;;;;;;;6.55;6.05;;;;;;;18.78;72.20;101083.97;5034453;28;20418;-75
2021/08/31 17:59:20;;;;;;;7.53;6.80;;;;;;;18.69;72.88;101082.94;5036520;28;20413;-74
2021/08/31 18:01:46;;;;;;;7.93;6.20;;;;;;;18.63;70.47;101076.66;5047428;28;20414;-75
2021/08/31 18:04:11;;;;;;;11.33;6.97;;;;;;;18.61;72.89;101084.34;5054423;28;20423;-74
2021/08/31 18:06:36;;;;;;;8.27;7.57;;;;;;;18.59;73.78;101089.31;5052761;28;20405;-74
2021/08/31 18:09:05;;;;;;;12.10;9.67;;;;;;;18.55;73.72;101087.38;5057548;28;20409;-75
2021/08/31 18:11:30;;;;;;;10.73;8.38;;;;;;;18.51;72.45;101097.28;5046596;28;20398;-74
2021/08/31 18:13:56;;;;;;;9.43;8.30;;;;;;;18.46;73.23;101092.63;5044091;28;20448;-75
2021/08/31 18:16:21;;;;;;;9.57;8.63;;;;;;;18.40;73.82;101103.91;5054378;28;20403;-74
2021/08/31 18:18:46;;;;;;;10.03;7.73;;;;;;;18.35;73.14;101096.50;5060996;28;20790;-74
2021/08/31 18:21:11;;;;;;;9.40;8.50;;;;;;;18.31;73.84;101098.16;5050774;28;20466;-74
2021/08/31 18:23:37;;;;;;;12.50;9.30;;;;;;;18.28;73.86;101095.97;5051105;28;20844;-74
2021/08/31 18:26:04;;;;;;;11.73;10.17;;;;;;;18.25;74.41;101104.78;5050203;28;20802;-74
2021/08/31 18:28:30;;;;;;;16.33;9.67;;;;;;;18.21;73.86;101105.63;5049476;28;20490;-74
2021/08/31 18:30:55;;;;;;;13.27;9.83;;;;;;;18.18;74.67;101108.94;5049372;28;20478;-74
2021/08/31 18:33:21;;;;;;;9.67;7.93;;;;;;;18.14;74.56;101114.16;5057335;28;20962;-74
2021/08/31 18:35:47;;;;;;;11.10;8.23;;;;;;;18.12;74.29;101110.84;5056769;28;20416;-74
2021/08/31 18:38:13;;;;;;;9.93;8.75;;;;;;;18.09;75.19;101115.00;5044338;28;20421;-74
2021/08/31 18:40:38;;;;;;;9.33;7.97;;;;;;;18.07;75.48;101119.13;5044794;28;20420;-74
2021/08/31 18:43:04;;;;;;;8.75;8.00;;;;;;;18.04;75.69;101114.19;5050981;28;20417;-74
2021/08/31 18:45:29;;;;;;;9.47;8.47;;;;;;;18.03;76.13;101123.50;5045758;28;20413;-74
2021/08/31 18:47:54;;;;;;;9.40;8.50;;;;;;;18.00;76.54;101132.28;5052973;28;20912;-74
2021/08/31 18:50:20;;;;;;;9.15;8.25;;;;;;;17.98;76.90;101137.25;5050307;28;20442;-74
2021/08/31 18:52:45;;;;;;;8.23;7.53;;;;;;;17.95;76.79;101132.28;5052156;28;20410;-74
2021/08/31 18:55:10;;;;;;;8.70;7.83;;;;;;;17.96;76.04;101139.44;5058865;28;20419;-74
2021/08/31 18:57:36;;;;;;;12.20;8.10;;;;;;;17.96;75.24;101136.69;5058857;28;20411;-74
2021/08/31 19:00:02;;;;;;;8.93;8.17;;;;;;;17.95;74.69;101138.59;5048828;28;20989;-74
2021/08/31 19:02:27;;;;;;;11.45;8.77;;;;;;;17.95;74.40;101144.09;5044259;28;20963;-74
2021/08/31 19:04:53;;;;;;;12.35;8.52;;;;;;;17.93;73.88;101135.31;5041352;28;20443;-74
2021/08/31 19:07:18;;;;;;;11.73;8.77;;;;;;;17.93;74.29;101146.28;5041593;28;20772;-74
2021/08/31 19:09:43;;;;;;;11.33;8.37;;;;;;;17.92;74.64;101141.06;5041331;28;20433;-74
2021/08/31 19:12:09;;;;;;;12.00;9.13;;;;;;;17.90;74.07;101146.03;5036513;28;20412;-74
2021/08/31 19:14:34;;;;;;;13.45;9.10;;;;;;;17.88;74.83;101146.28;5038264;28;20433;-73
2021/08/31 19:16:59;;;;;;;9.67;8.70;;;;;;;17.86;75.01;101153.97;5041047;28;20412;-74
2021/08/31 19:19:25;;;;;;;14.90;9.90;;;;;;;17.84;74.58;101158.94;5043989;28;20416;-74
2021/08/31 19:21:50;;;;;;;11.93;9.33;;;;;;;17.82;75.08;101160.28;5048164;28;20469;-74
2021/08/31 19:24:18;;;;;;;10.87;9.77;;;;;;;17.80;75.28;101157.00;5058282;28;20758;-74
2021/08/31 19:26:43;;;;;;;13.63;9.65;;;;;;;17.75;74.66;101157.03;5061506;28;20435;-74
2021/08/31 19:29:09;;;;;;;11.60;9.73;;;;;;;17.73;75.51;101167.41;5052763;28;20447;-74
2021/08/31 19:31:34;;;;;;;10.73;9.63;;;;;;;17.67;75.06;101158.38;5044777;28;20415;-74
2021/08/31 19:33:59;;;;;;;12.50;10.00;;;;;;;17.63;75.53;101169.06;5041707;28;20429;-75
2021/08/31 19:36:25;;;;;;;13.73;9.77;;;;;;;17.63;76.20;101171.00;5040281;28;20784;-75
2021/08/31 19:38:51;;;;;;;11.50;10.23;;;;;;;17.61;75.89;101165.78;5044568;28;20536;-74
2021/08/31 19:41:16;;;;;;;11.02;9.82;;;;;;;17.59;75.60;101164.41;5048553;28;20452;-74
2021/08/31 19:43:42;;;;;;;14.37;10.60;;;;;;;17.58;75.75;101179.22;5053272;28;20415;-74
2021/08/31 19:46:08;;;;;;;11.90;10.10;;;;;;;17.55;75.85;101175.09;5049491;28;20993;-75
2021/08/31 19:48:33;;;;;;;14.13;10.85;;;;;;;17.47;75.22;101175.63;5046371;28;20469;-75
2021/08/31 19:50:59;;;;;;;11.60;9.80;;;;;;;17.44;75.67;101175.34;5048789;28;20508;-75
2021/08/31 19:53:24;;;;;;;14.87;10.57;;;;;;;17.41;75.53;101182.19;5047007;28;20416;-74
2021/08/31 19:55:51;;;;;;;13.53;10.10;;;;;;;17.39;75.64;101184.38;5050701;28;20503;-75
2021/08/31 19:58:17;;;;;;;10.10;9.10;;;;;;;17.36;75.88;101189.56;5050925;28;20405;-75
2021/08/31 20:00:43;;;;;;;11.07;9.20;;;;;;;17.33;75.28;101187.38;5050181;28;20464;-75
2021/08/31 20:03:08;;;;;;;11.45;9.18;;;;;;;17.30;75.14;101191.47;5062734;28;20436;-75
2021/08/31 20:05:34;;;;;;;11.00;9.53;;;;;;;17.28;75.61;101188.22;5055005;28;21144;-75
2021/08/31 20:08:00;;;;;;;12.98;9.30;;;;;;;17.24;75.51;101192.56;5062151;28;20399;-75
2021/08/31 20:10:25;;;;;;;12.27;9.40;;;;;;;17.20;75.58;101193.38;5047670;28;21059;-75
2021/08/31 20:12:51;;;;;;;14.77;9.63;;;;;;;17.15;75.95;101196.13;5051271;28;20413;-75
2021/08/31 20:15:16;;;;;;;11.07;9.27;;;;;;;17.13;76.26;101194.47;5052877;28;20441;-75
2021/08/31 20:17:42;;;;;;;11.57;9.73;;;;;;;17.09;75.80;101198.03;5071829;28;20731;-75
2021/08/31 20:20:08;;;;;;;10.27;9.27;;;;;;;17.03;76.38;101197.16;5069657;28;20440;-75
2021/08/31 20:22:33;;;;;;;10.43;8.90;;;;;;;16.97;76.53;101198.25;5055863;28;20403;-75
2021/08/31 20:24:59;;;;;;;10.40;8.97;;;;;;;16.93;76.68;101199.88;5060168;28;20413;-75
2021/08/31 20:27:24;;;;;;;12.47;10.07;;;;;;;16.89;76.65;101198.75;5057414;28;20490;-76
2021/08/31 20:29:49;;;;;;;14.97;10.50;;;;;;;16.87;76.38;101197.41;5056544;28;20836;-75
2021/08/31 20:32:16;;;;;;;13.30;10.53;;;;;;;16.83;76.35;101199.84;5066964;28;20399;-76
2021/08/31 20:34:42;;;;;;;12.98;10.75;;;;;;;16.82;76.30;101194.66;5060663;28;21184;-75
2021/08/31 20:37:07;;;;;;;12.18;10.77;;;;;;;16.80;76.70;101196.81;5062101;28;20464;-75
2021/08/31 20:39:33;;;;;;;16.57;10.63;;;;;;;16.77;76.35;101198.19;5061775;28;20432;-76
2021/08/31 20:41:58;;;;;;;12.45;10.68;;;;;;;16.75;76.61;101205.84;5071757;28;20395;-76
2021/08/31 20:44:24;;;;;;;13.37;10.53;;;;;;;16.71;76.60;101207.47;5066425;28;20404;-76
2021/08/31 20:46:49;;;;;;;11.65;10.55;;;;;;;16.70;76.82;101203.06;5066511;28;20896;-76
2021/08/31 20:49:15;;;;;;;13.17;11.10;;;;;;;16.68;77.10;101204.44;5061414;28;20412;-75
2021/08/31 20:51:40;;;;;;;11.70;10.00;;;;;;;16.68;77.37;101204.44;5067488;28;20413;-76
2021/08/31 20:54:05;;;;;;;12.73;11.43;;;;;;;16.66;76.88;101209.38;5053671;28;20411;-76
2021/08/31 20:56:30;;;;;;;12.33;10.87;;;;;;;16.65;76.99;101207.72;5055128;28;20408;-76
2021/08/31 20:58:56;;;;;;;12.40;11.10;;;;;;;16.63;77.28;101207.16;5056282;28;20454;-76
2021/08/31 21:01:21;;;;;;;13.60;11.30;;;;;;;16.62;77.00;101206.34;5065210;28;20764;-76
2021/08/31 21:03:46;;;;;;;17.17;10.90;;;;;;;16.59;76.85;101210.44;5079450;28;20418;-76
2021/08/31 21:06:12;;;;;;;13.90;11.75;;;;;;;16.55;77.29;101203.84;5062879;28;20758;-75
2021/08/31 21:08:37;;;;;;;14.17;11.13;;;;;;;16.52;76.58;101207.09;5058337;28;20448;-76
2021/08/31 21:11:03;;;;;;;12.00;10.80;;;;;;;16.50;76.85;101208.41;5053842;28;20407;-75
2021/08/31 21:13:28;;;;;;;13.27;11.02;;;;;;;16.48;76.97;101210.59;5060767;28;20918;-75
2021/08/31 21:15:53;;;;;;;13.23;10.90;;;;;;;16.47;77.15;101208.94;5066849;28;20405;-75
2021/08/31 21:18:19;;;;;;;10.93;9.83;;;;;;;16.44;77.19;101214.94;5060207;28;20410;-75
2021/08/31 21:20:44;;;;;;;12.50;9.40;;;;;;;16.41;77.17;101219.06;5056809;28;20467;-75
2021/08/31 21:23:09;;;;;;;10.13;9.13;;;;;;;16.39;76.92;101221.25;5050639;28;20525;-75
2021/08/31 21:25:35;;;;;;;12.10;9.87;;;;;;;16.36;76.77;101224.50;5066863;28;20418;-76
2021/08/31 21:28:00;;;;;;;11.30;9.90;;;;;;;16.34;77.51;101225.84;5055216;28;20420;-76
2021/08/31 21:30:26;;;;;;;17.83;10.53;;;;;;;16.28;77.36;101225.00;5064557;28;20412;-75
2021/08/31 21:32:51;;;;;;;13.03;10.63;;;;;;;16.25;77.90;101224.69;5063284;28;20839;-75
2021/08/31 21:35:16;;;;;;;14.10;10.37;;;;;;;16.22;78.11;101228.78;5051967;28;20413;-75
2021/08/31 21:37:42;;;;;;;11.10;9.77;;;;;;;16.20;78.15;101230.13;5052250;28;20417;-75
2021/08/31 21:40:08;;;;;;;11.40;10.17;;;;;;;16.20;78.23;101233.66;5053154;28;20884;-75
2021/08/31 21:42:33;;;;;;;13.95;9.82;;;;;;;16.20;77.87;101232.88;5083746;28;20398;-75
2021/08/31 21:45:00;;;;;;;11.10;9.90;;;;;;;16.20;77.78;101236.41;5060174;28;20401;-75
2021/08/31 21:47:25;;;;;;;11.03;9.00;;;;;;;16.19;77.70;101233.94;5054816;28;20488;-75
2021/08/31 21:49:50;;;;;;;11.60;9.17;;;;;;;16.17;77.25;101242.41;5051005;28;20500;-76
2021/08/31 21:52:15;;;;;;;11.10;8.83;;;;;;;16.15;77.50;101241.84;5051288;28;20386;-76
2021/08/31 21:54:41;;;;;;;9.57;8.67;;;;;;;16.14;78.14;101244.84;5061299;28;20411;-75
2021/08/31 21:57:07;;;;;;;10.00;8.97;;;;;;;16.08;77.88;101246.72;5071923;28;20743;-75
2021/08/31 21:59:34;;;;;;;11.05;9.52;;;;;;;16.05;78.21;101248.06;5068448;28;20420;-76
2021/08/31 22:01:59;;;;;;;16.25;10.05;;;;;;;16.04;78.59;101248.31;5055270;28;20417;-76
2021/08/31 22:04:26;;;;;;;13.57;9.60;;;;;;;16.03;78.60;101249.44;5050290;28;20400;-75
2021/08/31 22:06:51;;;;;;;14.00;8.95;;;;;;;16.02;78.50;101245.03;5070802;28;20383;-75
2021/08/31 22:09:17;;;;;;;10.40;8.47;;;;;;;15.99;78.58;101245.56;5068471;28;20819;-76
2021/08/31 22:11:42;;;;;;;12.07;9.60;;;;;;;15.97;78.71;101254.00;5051218;28;20493;-75
2021/08/31 22:14:07;;;;;;;15.43;9.50;;;;;;;15.94;78.34;101243.59;5058829;28;20427;-76
2021/08/31 22:16:33;;;;;;;14.82;9.73;;;;;;;15.94;78.53;101246.34;5066824;28;20419;-76
2021/08/31 22:18:58;;;;;;;15.23;9.33;;;;;;;15.91;77.73;101246.88;5051240;28;20815;-75
2021/08/31 22:21:24;;;;;;;10.30;9.07;;;;;;;15.90;78.23;101249.88;5069734;28;20404;-75
2021/08/31 22:23:49;;;;;;;12.85;9.45;;;;;;;15.88;78.32;101250.13;5071468;28;20506;-75
2021/08/31 22:26:14;;;;;;;11.03;10.03;;;;;;;15.88;78.79;101252.03;5060959;28;20846;-76
2021/08/31 22:28:39;;;;;;;11.55;9.13;;;;;;;15.87;78.92;101253.94;5054093;28;20405;-75
2021/08/31 22:31:05;;;;;;;10.57;9.47;;;;;;;15.85;78.46;101252.53;5054292;28;20401;-75
2021/08/31 22:33:31;;;;;;;10.30;9.25;;;;;;;15.84;78.58;101248.19;5068274;28;20415;-76
2021/08/31 22:35:56;;;;;;;13.60;10.73;;;;;;;15.83;78.40;101247.34;5058341;28;20397;-75
2021/08/31 22:38:22;;;;;;;12.85;11.55;;;;;;;15.84;79.09;101242.72;5050821;28;20406;-76
2021/08/31 22:40:47;;;;;;;11.90;10.67;;;;;;;15.85;79.33;101247.91;5057038;28;20404;-76
2021/08/31 22:43:13;;;;;;;15.43;10.88;;;;;;;15.84;78.93;101242.72;5069903;28;20866;-76
2021/08/31 22:45:38;;;;;;;13.10;11.57;;;;;;;15.81;78.76;101245.94;5070915;28;20754;-75
2021/08/31 22:48:04;;;;;;;13.30;10.80;;;;;;;15.80;78.90;101241.59;5066140;28;20866;-75
2021/08/31 22:50:29;;;;;;;16.13;11.05;;;;;;;15.79;79.18;101245.41;5057065;28;20403;-75
2021/08/31 22:52:54;;;;;;;12.03;10.33;;;;;;;15.77;79.15;101242.94;5051769;28;20389;-76
2021/08/31 22:55:20;;;;;;;11.63;9.57;;;;;;;15.76;78.27;101244.00;5059171;28;20418;-76
2021/08/31 22:57:45;;;;;;;10.82;8.88;;;;;;;15.75;77.32;101245.09;5067079;28;20404;-76
2021/08/31 23:00:11;;;;;;;10.00;9.10;;;;;;;15.71;77.13;101243.94;5061220;28;20488;-75
2021/08/31 23:02:36;;;;;;;11.77;9.93;;;;;;;15.68;76.65;101239.00;5074650;28;20893;-76
2021/08/31 23:05:02;;;;;;;8.97;8.17;;;;;;;15.64;76.49;101248.84;5073924;28;20452;-76
2021/08/31 23:07:27;;;;;;;13.18;8.48;;;;;;;15.61;76.00;101259.44;5055076;28;20812;-76
2021/08/31 23:09:52;;;;;;;9.30;7.80;;;;;;;15.56;75.72;101257.47;5059035;28;20405;-75
2021/08/31 23:12:18;;;;;;;10.93;7.80;;;;;;;15.50;75.64;101262.09;5054885;28;20393;-76
2021/08/31 23:14:43;;;;;;;11.30;7.57;;;;;;;15.43;75.62;101261.44;5066190;28;20412;-76
2021/08/31 23:17:10;;;;;;;9.52;8.25;;;;;;;15.35;75.79;101261.03;5074814;28;20842;-75
2021/08/31 23:19:35;;;;;;;12.23;8.55;;;;;;;15.28;76.21;101263.19;5072621;28;20379;-75
2021/08/31 23:22:00;;;;;;;10.23;8.70;;;;;;;15.20;76.09;101259.00;5056567;28;20528;-76
2021/08/31 23:24:26;;;;;;;13.27;8.63;;;;;;;15.13;76.31;101260.25;5073189;28;20408;-76
2021/08/31 23:26:51;;;;;;;12.37;8.37;;;;;;;15.13;76.71;101254.78;5059026;28;20409;-76
2021/08/31 23:29:16;;;;;;;12.13;8.63;;;;;;;15.13;76.49;101260.25;5056262;28;20435;-76
2021/08/31 23:31:41;;;;;;;10.20;8.50;;;;;;;15.12;76.60;101255.88;5056070;28;20424;-75
2021/08/31 23:34:07;;;;;;;13.50;8.20;;;;;;;15.10;76.84;101250.69;5061054;28;20422;-75
2021/08/31 23:36:33;;;;;;;10.30;8.60;;;;;;;15.12;76.78;101253.97;5066124;28;20954;-75
2021/08/31 23:38:58;;;;;;;13.27;9.07;;;;;;;15.12;76.82;101256.69;5074283;28;20427;-75
2021/08/31 23:41:23;;;;;;;12.13;8.70;;;;;;;15.10;77.02;101258.88;5071408;28;20435;-75
2021/08/31 23:43:49;;;;;;;9.45;8.52;;;;;;;15.12;77.38;101253.97;5062902;28;20389;-76
2021/08/31 23:46:14;;;;;;;17.47;10.57;;;;;;;15.13;77.39;101254.78;5068985;28;20407;-75
2021/08/31 23:48:39;;;;;;;13.73;10.47;;;;;;;15.14;78.03;101254.56;5073142;28;20396;-76
2021/08/31 23:51:04;;;;;;;13.43;10.30;;;;;;;15.13;78.00;101252.91;5056829;28;20971;-75
2021/08/31 23:53:30;;;;;;;14.63;10.97;;;;;;;15.15;78.27;101258.91;5074052;28;20410;-76
2021/08/31 23:55:56;;;;;;;12.45;11.00;;;;;;;15.15;78.22;101263.56;5060958;28;20802;-75
2021/08/31 23:58:22;;;;;;;13.57;10.68;;;;;;;15.14;78.03;101256.44;5054066;28;20499;-75
